sensor_id;sensor_type;location;lat;lon;timestamp;P1;durP1;ratioP1;P2;durP2;ratioP2
76593;SDS011;65482;50.240;14.302;2024-03-08T00:00:07;132.20;;;40.47;;
76593;SDS011;65482;50.240;14.302;2024-03-08T00:02:36;152.38;;;45.78;;
76593;SDS011;65482;50.240;14.302;2024-03-08T00:05:05;156.68;;;47.65;;
76593;SDS011;65482;50.240;14.302;2024-03-08T00:07:34;104.00;;;33.58;;
76593;SDS011;65482;50.240;14.302;2024-03-08T00:10:02;96.78;;;33.63;;
76593;SDS011;65482;50.240;14.302;2024-03-08T00:12:31;106.55;;;36.75;;
76593;SDS011;65482;50.240;14.302;2024-03-08T00:14:57;119.05;;;40.00;;
76593;SDS011;65482;50.240;14.302;2024-03-08T00:17:22;167.05;;;53.47;;
76593;SDS011;65482;50.240;14.302;2024-03-08T00:19:51;167.65;;;54.00;;
76593;SDS011;65482;50.240;14.302;2024-03-08T00:22:16;149.93;;;49.15;;
76593;SDS011;65482;50.240;14.302;2024-03-08T00:24:43;141.85;;;49.40;;
76593;SDS011;65482;50.240;14.302;2024-03-08T00:27:08;126.82;;;43.97;;
76593;SDS011;65482;50.240;14.302;2024-03-08T00:29:34;88.38;;;32.10;;
76593;SDS011;65482;50.240;14.302;2024-03-08T00:32:00;62.72;;;25.42;;
76593;SDS011;65482;50.240;14.302;2024-03-08T00:34:26;53.78;;;22.77;;
76593;SDS011;65482;50.240;14.302;2024-03-08T00:36:52;44.72;;;21.05;;
76593;SDS011;65482;50.240;14.302;2024-03-08T00:39:18;49.95;;;21.77;;
76593;SDS011;65482;50.240;14.302;2024-03-08T00:41:46;43.63;;;20.02;;
76593;SDS011;65482;50.240;14.302;2024-03-08T00:44:11;45.80;;;20.23;;
76593;SDS011;65482;50.240;14.302;2024-03-08T00:46:37;41.67;;;19.27;;
76593;SDS011;65482;50.240;14.302;2024-03-08T00:49:03;46.20;;;20.40;;
76593;SDS011;65482;50.240;14.302;2024-03-08T00:51:28;43.42;;;20.08;;
76593;SDS011;65482;50.240;14.302;2024-03-08T00:53:54;44.47;;;20.08;;
76593;SDS011;65482;50.240;14.302;2024-03-08T00:56:20;42.00;;;19.33;;
76593;SDS011;65482;50.240;14.302;2024-03-08T00:58:46;44.78;;;19.90;;
76593;SDS011;65482;50.240;14.302;2024-03-08T01:01:12;43.25;;;19.80;;
76593;SDS011;65482;50.240;14.302;2024-03-08T01:03:42;45.70;;;20.40;;
76593;SDS011;65482;50.240;14.302;2024-03-08T01:06:08;39.85;;;19.58;;
76593;SDS011;65482;50.240;14.302;2024-03-08T01:08:34;40.15;;;20.05;;
76593;SDS011;65482;50.240;14.302;2024-03-08T01:11:06;47.15;;;20.10;;
76593;SDS011;65482;50.240;14.302;2024-03-08T01:13:32;43.65;;;19.65;;
76593;SDS011;65482;50.240;14.302;2024-03-08T01:15:57;45.38;;;19.55;;
76593;SDS011;65482;50.240;14.302;2024-03-08T01:18:23;45.22;;;20.60;;
76593;SDS011;65482;50.240;14.302;2024-03-08T01:20:48;47.85;;;20.67;;
76593;SDS011;65482;50.240;14.302;2024-03-08T01:23:14;40.70;;;18.92;;
76593;SDS011;65482;50.240;14.302;2024-03-08T01:25:39;47.20;;;20.30;;
76593;SDS011;65482;50.240;14.302;2024-03-08T01:28:07;43.20;;;20.35;;
76593;SDS011;65482;50.240;14.302;2024-03-08T01:30:32;44.40;;;20.10;;
76593;SDS011;65482;50.240;14.302;2024-03-08T01:33:00;47.47;;;20.42;;
76593;SDS011;65482;50.240;14.302;2024-03-08T01:35:25;43.53;;;20.13;;
76593;SDS011;65482;50.240;14.302;2024-03-08T01:37:52;48.65;;;21.67;;
76593;SDS011;65482;50.240;14.302;2024-03-08T01:40:18;55.25;;;21.88;;
76593;SDS011;65482;50.240;14.302;2024-03-08T01:42:44;56.80;;;24.92;;
76593;SDS011;65482;50.240;14.302;2024-03-08T01:45:09;47.63;;;22.10;;
76593;SDS011;65482;50.240;14.302;2024-03-08T01:47:35;49.00;;;21.35;;
76593;SDS011;65482;50.240;14.302;2024-03-08T01:50:02;49.33;;;20.75;;
76593;SDS011;65482;50.240;14.302;2024-03-08T01:52:34;46.88;;;20.73;;
76593;SDS011;65482;50.240;14.302;2024-03-08T01:55:02;47.05;;;19.83;;
76593;SDS011;65482;50.240;14.302;2024-03-08T01:57:39;48.40;;;20.00;;
76593;SDS011;65482;50.240;14.302;2024-03-08T02:00:05;43.17;;;20.25;;
76593;SDS011;65482;50.240;14.302;2024-03-08T02:02:32;45.70;;;20.17;;
76593;SDS011;65482;50.240;14.302;2024-03-08T02:05:00;44.05;;;19.42;;
76593;SDS011;65482;50.240;14.302;2024-03-08T02:07:26;47.13;;;21.25;;
76593;SDS011;65482;50.240;14.302;2024-03-08T02:09:51;51.20;;;21.13;;
76593;SDS011;65482;50.240;14.302;2024-03-08T02:12:17;45.33;;;20.00;;
76593;SDS011;65482;50.240;14.302;2024-03-08T02:14:45;42.28;;;19.75;;
76593;SDS011;65482;50.240;14.302;2024-03-08T02:17:12;43.08;;;19.05;;
76593;SDS011;65482;50.240;14.302;2024-03-08T02:19:38;44.25;;;20.05;;
76593;SDS011;65482;50.240;14.302;2024-03-08T02:22:04;46.90;;;21.58;;
76593;SDS011;65482;50.240;14.302;2024-03-08T02:24:31;47.92;;;20.83;;
76593;SDS011;65482;50.240;14.302;2024-03-08T02:26:57;40.85;;;19.45;;
76593;SDS011;65482;50.240;14.302;2024-03-08T02:29:23;48.88;;;20.80;;
76593;SDS011;65482;50.240;14.302;2024-03-08T02:31:52;46.75;;;20.48;;
76593;SDS011;65482;50.240;14.302;2024-03-08T02:34:18;48.63;;;20.65;;
76593;SDS011;65482;50.240;14.302;2024-03-08T02:36:43;46.97;;;20.52;;
76593;SDS011;65482;50.240;14.302;2024-03-08T02:39:09;45.78;;;20.80;;
76593;SDS011;65482;50.240;14.302;2024-03-08T02:41:36;45.45;;;20.27;;
76593;SDS011;65482;50.240;14.302;2024-03-08T02:44:01;46.33;;;21.67;;
76593;SDS011;65482;50.240;14.302;2024-03-08T02:46:27;48.80;;;20.83;;
76593;SDS011;65482;50.240;14.302;2024-03-08T02:48:53;49.45;;;21.70;;
76593;SDS011;65482;50.240;14.302;2024-03-08T02:51:18;46.08;;;20.58;;
76593;SDS011;65482;50.240;14.302;2024-03-08T02:53:45;51.53;;;21.40;;
76593;SDS011;65482;50.240;14.302;2024-03-08T02:56:14;47.45;;;21.42;;
76593;SDS011;65482;50.240;14.302;2024-03-08T02:58:42;49.55;;;20.73;;
76593;SDS011;65482;50.240;14.302;2024-03-08T03:01:08;50.35;;;20.98;;
76593;SDS011;65482;50.240;14.302;2024-03-08T03:03:35;52.47;;;22.40;;
76593;SDS011;65482;50.240;14.302;2024-03-08T03:06:01;45.47;;;20.73;;
76593;SDS011;65482;50.240;14.302;2024-03-08T03:08:26;47.72;;;20.83;;
76593;SDS011;65482;50.240;14.302;2024-03-08T03:10:52;50.10;;;21.17;;
76593;SDS011;65482;50.240;14.302;2024-03-08T03:13:18;48.70;;;21.25;;
76593;SDS011;65482;50.240;14.302;2024-03-08T03:15:46;43.72;;;20.48;;
76593;SDS011;65482;50.240;14.302;2024-03-08T03:18:11;49.53;;;21.23;;
76593;SDS011;65482;50.240;14.302;2024-03-08T03:20:37;47.47;;;20.60;;
76593;SDS011;65482;50.240;14.302;2024-03-08T03:23:06;47.38;;;21.08;;
76593;SDS011;65482;50.240;14.302;2024-03-08T03:25:34;46.75;;;21.98;;
76593;SDS011;65482;50.240;14.302;2024-03-08T03:28:00;45.83;;;20.75;;
76593;SDS011;65482;50.240;14.302;2024-03-08T03:30:26;46.97;;;20.80;;
76593;SDS011;65482;50.240;14.302;2024-03-08T03:32:56;48.33;;;21.38;;
76593;SDS011;65482;50.240;14.302;2024-03-08T03:35:24;50.03;;;21.63;;
76593;SDS011;65482;50.240;14.302;2024-03-08T03:37:49;52.53;;;22.45;;
76593;SDS011;65482;50.240;14.302;2024-03-08T03:40:34;47.58;;;20.50;;
76593;SDS011;65482;50.240;14.302;2024-03-08T03:42:59;50.00;;;22.65;;
76593;SDS011;65482;50.240;14.302;2024-03-08T03:45:26;42.47;;;20.58;;
76593;SDS011;65482;50.240;14.302;2024-03-08T03:47:52;48.13;;;22.05;;
76593;SDS011;65482;50.240;14.302;2024-03-08T03:50:18;53.83;;;22.15;;
76593;SDS011;65482;50.240;14.302;2024-03-08T03:52:47;51.13;;;23.00;;
76593;SDS011;65482;50.240;14.302;2024-03-08T03:55:14;51.88;;;22.08;;
76593;SDS011;65482;50.240;14.302;2024-03-08T03:57:40;48.83;;;22.27;;
76593;SDS011;65482;50.240;14.302;2024-03-08T04:00:06;49.13;;;21.50;;
76593;SDS011;65482;50.240;14.302;2024-03-08T04:02:36;56.10;;;22.25;;
76593;SDS011;65482;50.240;14.302;2024-03-08T04:05:03;49.28;;;22.08;;
76593;SDS011;65482;50.240;14.302;2024-03-08T04:07:32;49.05;;;22.20;;
76593;SDS011;65482;50.240;14.302;2024-03-08T04:09:58;47.03;;;20.77;;
76593;SDS011;65482;50.240;14.302;2024-03-08T04:12:23;45.17;;;21.65;;
76593;SDS011;65482;50.240;14.302;2024-03-08T04:14:49;49.42;;;21.77;;
76593;SDS011;65482;50.240;14.302;2024-03-08T04:17:14;43.53;;;19.98;;
76593;SDS011;65482;50.240;14.302;2024-03-08T04:19:40;47.80;;;21.73;;
76593;SDS011;65482;50.240;14.302;2024-03-08T04:22:06;48.50;;;22.48;;
76593;SDS011;65482;50.240;14.302;2024-03-08T04:24:33;46.05;;;21.45;;
76593;SDS011;65482;50.240;14.302;2024-03-08T04:26:58;52.17;;;21.42;;
76593;SDS011;65482;50.240;14.302;2024-03-08T04:29:24;48.78;;;22.05;;
76593;SDS011;65482;50.240;14.302;2024-03-08T04:31:49;44.95;;;18.90;;
76593;SDS011;65482;50.240;14.302;2024-03-08T04:34:20;41.60;;;20.10;;
76593;SDS011;65482;50.240;14.302;2024-03-08T04:36:47;48.22;;;20.13;;
76593;SDS011;65482;50.240;14.302;2024-03-08T04:39:13;42.92;;;20.73;;
76593;SDS011;65482;50.240;14.302;2024-03-08T04:41:40;44.85;;;19.95;;
76593;SDS011;65482;50.240;14.302;2024-03-08T04:44:12;45.70;;;20.27;;
76593;SDS011;65482;50.240;14.302;2024-03-08T04:46:38;45.85;;;21.77;;
76593;SDS011;65482;50.240;14.302;2024-03-08T04:49:03;45.67;;;20.92;;
76593;SDS011;65482;50.240;14.302;2024-03-08T04:51:29;52.05;;;20.38;;
76593;SDS011;65482;50.240;14.302;2024-03-08T04:53:55;43.22;;;19.45;;
76593;SDS011;65482;50.240;14.302;2024-03-08T04:56:22;45.60;;;20.45;;
76593;SDS011;65482;50.240;14.302;2024-03-08T04:58:48;43.40;;;20.10;;
76593;SDS011;65482;50.240;14.302;2024-03-08T05:01:13;48.60;;;21.10;;
76593;SDS011;65482;50.240;14.302;2024-03-08T05:03:39;48.50;;;21.55;;
76593;SDS011;65482;50.240;14.302;2024-03-08T05:06:05;50.08;;;20.88;;
76593;SDS011;65482;50.240;14.302;2024-03-08T05:08:31;47.45;;;20.58;;
76593;SDS011;65482;50.240;14.302;2024-03-08T05:10:56;46.97;;;20.95;;
76593;SDS011;65482;50.240;14.302;2024-03-08T05:13:22;46.08;;;20.48;;
76593;SDS011;65482;50.240;14.302;2024-03-08T05:15:48;49.22;;;21.20;;
76593;SDS011;65482;50.240;14.302;2024-03-08T05:18:15;49.42;;;21.33;;
76593;SDS011;65482;50.240;14.302;2024-03-08T05:20:41;52.10;;;22.23;;
76593;SDS011;65482;50.240;14.302;2024-03-08T05:23:07;45.10;;;20.42;;
76593;SDS011;65482;50.240;14.302;2024-03-08T05:25:33;54.00;;;21.50;;
76593;SDS011;65482;50.240;14.302;2024-03-08T05:27:59;49.22;;;21.63;;
76593;SDS011;65482;50.240;14.302;2024-03-08T05:30:25;50.53;;;21.40;;
76593;SDS011;65482;50.240;14.302;2024-03-08T05:32:51;50.65;;;21.88;;
76593;SDS011;65482;50.240;14.302;2024-03-08T05:35:16;52.05;;;22.30;;
76593;SDS011;65482;50.240;14.302;2024-03-08T05:37:42;44.97;;;21.60;;
76593;SDS011;65482;50.240;14.302;2024-03-08T05:40:08;49.15;;;22.55;;
76593;SDS011;65482;50.240;14.302;2024-03-08T05:42:35;51.72;;;22.77;;
76593;SDS011;65482;50.240;14.302;2024-03-08T05:45:02;52.33;;;21.77;;
76593;SDS011;65482;50.240;14.302;2024-03-08T05:47:29;47.92;;;21.52;;
76593;SDS011;65482;50.240;14.302;2024-03-08T05:49:54;50.33;;;21.88;;
76593;SDS011;65482;50.240;14.302;2024-03-08T05:52:20;49.38;;;22.38;;
76593;SDS011;65482;50.240;14.302;2024-03-08T05:54:46;50.22;;;21.85;;
76593;SDS011;65482;50.240;14.302;2024-03-08T05:57:12;46.95;;;21.48;;
76593;SDS011;65482;50.240;14.302;2024-03-08T05:59:39;54.60;;;21.10;;
76593;SDS011;65482;50.240;14.302;2024-03-08T06:02:06;50.75;;;22.63;;
76593;SDS011;65482;50.240;14.302;2024-03-08T06:04:31;52.72;;;22.60;;
76593;SDS011;65482;50.240;14.302;2024-03-08T06:06:57;51.63;;;21.67;;
76593;SDS011;65482;50.240;14.302;2024-03-08T06:09:23;50.22;;;21.08;;
76593;SDS011;65482;50.240;14.302;2024-03-08T06:11:52;45.35;;;20.92;;
76593;SDS011;65482;50.240;14.302;2024-03-08T06:14:19;50.85;;;21.33;;
76593;SDS011;65482;50.240;14.302;2024-03-08T06:16:45;50.22;;;22.85;;
76593;SDS011;65482;50.240;14.302;2024-03-08T06:19:12;52.70;;;21.98;;
76593;SDS011;65482;50.240;14.302;2024-03-08T06:21:38;49.00;;;22.85;;
76593;SDS011;65482;50.240;14.302;2024-03-08T06:24:04;52.42;;;21.35;;
76593;SDS011;65482;50.240;14.302;2024-03-08T06:26:31;51.42;;;21.83;;
76593;SDS011;65482;50.240;14.302;2024-03-08T06:28:56;46.67;;;21.08;;
76593;SDS011;65482;50.240;14.302;2024-03-08T06:31:23;54.70;;;21.85;;
76593;SDS011;65482;50.240;14.302;2024-03-08T06:33:49;51.25;;;21.45;;
76593;SDS011;65482;50.240;14.302;2024-03-08T06:36:16;55.22;;;23.48;;
76593;SDS011;65482;50.240;14.302;2024-03-08T07:50:03;41.37;;;21.97;;
76593;SDS011;65482;50.240;14.302;2024-03-08T07:52:53;39.42;;;21.17;;
76593;SDS011;65482;50.240;14.302;2024-03-08T08:15:15;35.85;;;21.48;;
76593;SDS011;65482;50.240;14.302;2024-03-08T08:35:42;41.85;;;21.13;;
76593;SDS011;65482;50.240;14.302;2024-03-08T08:38:45;43.75;;;21.48;;
76593;SDS011;65482;50.240;14.302;2024-03-08T08:41:11;43.70;;;22.95;;
76593;SDS011;65482;50.240;14.302;2024-03-08T08:43:59;41.10;;;20.65;;
76593;SDS011;65482;50.240;14.302;2024-03-08T08:46:48;42.55;;;21.77;;
76593;SDS011;65482;50.240;14.302;2024-03-08T08:52:57;59.53;;;29.07;;
76593;SDS011;65482;50.240;14.302;2024-03-08T08:55:50;41.22;;;22.63;;
76593;SDS011;65482;50.240;14.302;2024-03-08T08:58:26;45.53;;;23.45;;
76593;SDS011;65482;50.240;14.302;2024-03-08T09:01:01;40.95;;;20.98;;
76593;SDS011;65482;50.240;14.302;2024-03-08T09:03:56;35.00;;;19.83;;
76593;SDS011;65482;50.240;14.302;2024-03-08T09:08:53;41.35;;;19.10;;
76593;SDS011;65482;50.240;14.302;2024-03-08T09:11:20;35.70;;;19.25;;
76593;SDS011;65482;50.240;14.302;2024-03-08T09:13:46;40.00;;;18.73;;
76593;SDS011;65482;50.240;14.302;2024-03-08T09:16:12;36.08;;;19.63;;
76593;SDS011;65482;50.240;14.302;2024-03-08T09:18:37;38.00;;;19.25;;
76593;SDS011;65482;50.240;14.302;2024-03-08T09:21:03;38.35;;;19.02;;
76593;SDS011;65482;50.240;14.302;2024-03-08T09:23:36;38.88;;;19.23;;
76593;SDS011;65482;50.240;14.302;2024-03-08T09:26:10;32.92;;;17.88;;
76593;SDS011;65482;50.240;14.302;2024-03-08T09:28:42;35.30;;;18.40;;
76593;SDS011;65482;50.240;14.302;2024-03-08T09:31:12;38.67;;;18.90;;
76593;SDS011;65482;50.240;14.302;2024-03-08T09:33:37;36.35;;;18.10;;
76593;SDS011;65482;50.240;14.302;2024-03-08T09:36:09;36.67;;;17.85;;
76593;SDS011;65482;50.240;14.302;2024-03-08T09:38:46;32.78;;;17.02;;
76593;SDS011;65482;50.240;14.302;2024-03-08T09:41:14;38.28;;;17.77;;
76593;SDS011;65482;50.240;14.302;2024-03-08T09:44:00;35.88;;;18.08;;
76593;SDS011;65482;50.240;14.302;2024-03-08T09:46:27;36.85;;;17.70;;
76593;SDS011;65482;50.240;14.302;2024-03-08T09:53:05;39.15;;;19.13;;
76593;SDS011;65482;50.240;14.302;2024-03-08T10:01:36;41.53;;;17.38;;
76593;SDS011;65482;50.240;14.302;2024-03-08T10:12:09;37.03;;;17.38;;
76593;SDS011;65482;50.240;14.302;2024-03-08T10:15:02;32.10;;;17.15;;
76593;SDS011;65482;50.240;14.302;2024-03-08T10:18:13;36.08;;;18.55;;
76593;SDS011;65482;50.240;14.302;2024-03-08T10:24:22;34.03;;;18.08;;
76593;SDS011;65482;50.240;14.302;2024-03-08T10:27:11;33.92;;;18.08;;
76593;SDS011;65482;50.240;14.302;2024-03-08T10:33:12;33.53;;;17.10;;
76593;SDS011;65482;50.240;14.302;2024-03-08T10:35:46;38.13;;;18.02;;
76593;SDS011;65482;50.240;14.302;2024-03-08T10:38:43;40.35;;;18.08;;
76593;SDS011;65482;50.240;14.302;2024-03-08T10:42:06;35.47;;;17.80;;
76593;SDS011;65482;50.240;14.302;2024-03-08T10:45:18;34.75;;;17.27;;
76593;SDS011;65482;50.240;14.302;2024-03-08T10:51:35;34.58;;;18.30;;
76593;SDS011;65482;50.240;14.302;2024-03-08T10:54:29;29.67;;;15.88;;
76593;SDS011;65482;50.240;14.302;2024-03-08T10:56:59;31.77;;;16.83;;
76593;SDS011;65482;50.240;14.302;2024-03-08T10:59:59;35.00;;;18.52;;
76593;SDS011;65482;50.240;14.302;2024-03-08T11:08:54;34.20;;;17.85;;
76593;SDS011;65482;50.240;14.302;2024-03-08T11:11:32;35.97;;;17.95;;
76593;SDS011;65482;50.240;14.302;2024-03-08T11:14:04;34.78;;;17.80;;
76593;SDS011;65482;50.240;14.302;2024-03-08T11:16:39;33.40;;;18.30;;
76593;SDS011;65482;50.240;14.302;2024-03-08T11:21:46;37.47;;;18.10;;
76593;SDS011;65482;50.240;14.302;2024-03-08T11:24:27;31.13;;;16.88;;
76593;SDS011;65482;50.240;14.302;2024-03-08T11:27:04;34.05;;;18.55;;
76593;SDS011;65482;50.240;14.302;2024-03-08T11:34:39;32.42;;;16.25;;
76593;SDS011;65482;50.240;14.302;2024-03-08T11:37:10;32.22;;;15.73;;
76593;SDS011;65482;50.240;14.302;2024-03-08T11:39:46;30.13;;;16.25;;
76593;SDS011;65482;50.240;14.302;2024-03-08T11:42:19;28.65;;;15.88;;
76593;SDS011;65482;50.240;14.302;2024-03-08T11:44:50;27.30;;;15.68;;
76593;SDS011;65482;50.240;14.302;2024-03-08T11:47:18;31.42;;;17.75;;
76593;SDS011;65482;50.240;14.302;2024-03-08T11:49:44;33.47;;;15.38;;
76593;SDS011;65482;50.240;14.302;2024-03-08T11:52:13;30.58;;;16.75;;
76593;SDS011;65482;50.240;14.302;2024-03-08T11:54:40;31.42;;;15.85;;
76593;SDS011;65482;50.240;14.302;2024-03-08T11:57:06;35.10;;;16.40;;
76593;SDS011;65482;50.240;14.302;2024-03-08T11:59:32;31.50;;;15.63;;
76593;SDS011;65482;50.240;14.302;2024-03-08T12:01:59;29.23;;;15.23;;
76593;SDS011;65482;50.240;14.302;2024-03-08T12:04:27;26.08;;;15.23;;
76593;SDS011;65482;50.240;14.302;2024-03-08T12:06:52;27.45;;;14.88;;
76593;SDS011;65482;50.240;14.302;2024-03-08T12:09:18;28.20;;;15.73;;
76593;SDS011;65482;50.240;14.302;2024-03-08T12:11:47;30.45;;;15.73;;
76593;SDS011;65482;50.240;14.302;2024-03-08T12:14:13;31.08;;;15.73;;
76593;SDS011;65482;50.240;14.302;2024-03-08T12:16:39;24.75;;;13.65;;
76593;SDS011;65482;50.240;14.302;2024-03-08T12:19:04;25.98;;;14.70;;
76593;SDS011;65482;50.240;14.302;2024-03-08T12:21:31;26.10;;;14.30;;
76593;SDS011;65482;50.240;14.302;2024-03-08T12:24:10;27.42;;;14.02;;
76593;SDS011;65482;50.240;14.302;2024-03-08T12:26:38;27.05;;;14.10;;
76593;SDS011;65482;50.240;14.302;2024-03-08T12:29:14;27.15;;;14.02;;
76593;SDS011;65482;50.240;14.302;2024-03-08T12:31:53;26.52;;;13.32;;
76593;SDS011;65482;50.240;14.302;2024-03-08T12:34:24;20.23;;;11.77;;
76593;SDS011;65482;50.240;14.302;2024-03-08T12:36:50;21.60;;;11.98;;
76593;SDS011;65482;50.240;14.302;2024-03-08T12:39:20;24.13;;;11.68;;
76593;SDS011;65482;50.240;14.302;2024-03-08T12:41:48;27.35;;;12.20;;
76593;SDS011;65482;50.240;14.302;2024-03-08T12:44:17;23.40;;;13.05;;
76593;SDS011;65482;50.240;14.302;2024-03-08T12:46:44;24.42;;;12.43;;
76593;SDS011;65482;50.240;14.302;2024-03-08T12:49:10;20.08;;;11.52;;
76593;SDS011;65482;50.240;14.302;2024-03-08T12:51:38;23.60;;;11.88;;
76593;SDS011;65482;50.240;14.302;2024-03-08T12:54:04;25.05;;;13.07;;
76593;SDS011;65482;50.240;14.302;2024-03-08T12:56:37;24.00;;;12.35;;
76593;SDS011;65482;50.240;14.302;2024-03-08T12:59:04;21.35;;;11.35;;
76593;SDS011;65482;50.240;14.302;2024-03-08T13:01:30;22.45;;;11.55;;
76593;SDS011;65482;50.240;14.302;2024-03-08T13:03:59;24.35;;;11.73;;
76593;SDS011;65482;50.240;14.302;2024-03-08T13:06:28;29.85;;;12.80;;
76593;SDS011;65482;50.240;14.302;2024-03-08T13:08:54;26.02;;;13.05;;
76593;SDS011;65482;50.240;14.302;2024-03-08T13:11:20;30.17;;;12.68;;
76593;SDS011;65482;50.240;14.302;2024-03-08T13:13:46;22.35;;;12.63;;
76593;SDS011;65482;50.240;14.302;2024-03-08T13:16:13;21.38;;;12.00;;
76593;SDS011;65482;50.240;14.302;2024-03-08T13:18:40;21.58;;;11.15;;
76593;SDS011;65482;50.240;14.302;2024-03-08T13:21:09;23.48;;;12.02;;
76593;SDS011;65482;50.240;14.302;2024-03-08T13:23:37;19.80;;;11.00;;
76593;SDS011;65482;50.240;14.302;2024-03-08T13:26:06;20.95;;;11.25;;
76593;SDS011;65482;50.240;14.302;2024-03-08T13:28:32;21.20;;;12.55;;
76593;SDS011;65482;50.240;14.302;2024-03-08T13:31:05;20.50;;;12.35;;
76593;SDS011;65482;50.240;14.302;2024-03-08T13:33:35;19.58;;;11.40;;
76593;SDS011;65482;50.240;14.302;2024-03-08T13:36:12;22.33;;;11.85;;
76593;SDS011;65482;50.240;14.302;2024-03-08T13:38:47;18.38;;;11.38;;
76593;SDS011;65482;50.240;14.302;2024-03-08T13:41:14;19.67;;;11.95;;
76593;SDS011;65482;50.240;14.302;2024-03-08T13:43:43;22.45;;;11.10;;
76593;SDS011;65482;50.240;14.302;2024-03-08T13:46:11;18.33;;;11.38;;
76593;SDS011;65482;50.240;14.302;2024-03-08T13:48:37;24.15;;;11.30;;
76593;SDS011;65482;50.240;14.302;2024-03-08T13:51:05;23.33;;;12.50;;
76593;SDS011;65482;50.240;14.302;2024-03-08T13:53:36;21.63;;;11.48;;
76593;SDS011;65482;50.240;14.302;2024-03-08T13:56:02;21.40;;;12.13;;
76593;SDS011;65482;50.240;14.302;2024-03-08T13:58:28;24.33;;;11.55;;
76593;SDS011;65482;50.240;14.302;2024-03-08T14:00:54;17.83;;;10.50;;
76593;SDS011;65482;50.240;14.302;2024-03-08T14:03:20;20.25;;;10.00;;
76593;SDS011;65482;50.240;14.302;2024-03-08T14:05:46;16.73;;;10.52;;
76593;SDS011;65482;50.240;14.302;2024-03-08T14:08:12;16.75;;;10.35;;
76593;SDS011;65482;50.240;14.302;2024-03-08T14:10:39;23.60;;;10.25;;
76593;SDS011;65482;50.240;14.302;2024-03-08T14:13:05;18.90;;;9.73;;
76593;SDS011;65482;50.240;14.302;2024-03-08T14:15:32;20.13;;;10.00;;
76593;SDS011;65482;50.240;14.302;2024-03-08T14:17:58;15.27;;;9.73;;
76593;SDS011;65482;50.240;14.302;2024-03-08T14:20:25;17.70;;;9.82;;
76593;SDS011;65482;50.240;14.302;2024-03-08T14:22:53;14.73;;;8.40;;
76593;SDS011;65482;50.240;14.302;2024-03-08T14:25:20;16.42;;;9.18;;
76593;SDS011;65482;50.240;14.302;2024-03-08T14:27:48;16.90;;;8.70;;
76593;SDS011;65482;50.240;14.302;2024-03-08T14:30:15;16.55;;;8.02;;
76593;SDS011;65482;50.240;14.302;2024-03-08T14:33:03;14.23;;;7.93;;
76593;SDS011;65482;50.240;14.302;2024-03-08T14:35:37;17.40;;;8.80;;
76593;SDS011;65482;50.240;14.302;2024-03-08T14:38:03;16.33;;;8.63;;
76593;SDS011;65482;50.240;14.302;2024-03-08T14:40:30;14.70;;;8.63;;
76593;SDS011;65482;50.240;14.302;2024-03-08T14:42:56;15.50;;;8.68;;
76593;SDS011;65482;50.240;14.302;2024-03-08T14:45:22;17.20;;;8.93;;
76593;SDS011;65482;50.240;14.302;2024-03-08T14:47:52;20.52;;;9.38;;
76593;SDS011;65482;50.240;14.302;2024-03-08T14:50:19;16.15;;;9.02;;
76593;SDS011;65482;50.240;14.302;2024-03-08T14:52:46;14.68;;;8.50;;
76593;SDS011;65482;50.240;14.302;2024-03-08T14:55:16;13.93;;;8.05;;
76593;SDS011;65482;50.240;14.302;2024-03-08T14:57:45;19.40;;;7.70;;
76593;SDS011;65482;50.240;14.302;2024-03-08T15:00:14;14.65;;;7.82;;
76593;SDS011;65482;50.240;14.302;2024-03-08T15:02:54;17.10;;;8.23;;
76593;SDS011;65482;50.240;14.302;2024-03-08T15:05:20;14.18;;;7.78;;
76593;SDS011;65482;50.240;14.302;2024-03-08T15:07:51;13.88;;;7.25;;
76593;SDS011;65482;50.240;14.302;2024-03-08T15:10:18;14.77;;;7.85;;
76593;SDS011;65482;50.240;14.302;2024-03-08T15:12:47;14.57;;;8.02;;
76593;SDS011;65482;50.240;14.302;2024-03-08T15:15:13;13.45;;;7.95;;
76593;SDS011;65482;50.240;14.302;2024-03-08T15:17:43;14.68;;;7.78;;
76593;SDS011;65482;50.240;14.302;2024-03-08T15:20:12;16.33;;;7.45;;
76593;SDS011;65482;50.240;14.302;2024-03-08T15:22:43;14.77;;;7.55;;
76593;SDS011;65482;50.240;14.302;2024-03-08T15:25:10;13.02;;;7.00;;
76593;SDS011;65482;50.240;14.302;2024-03-08T15:27:49;14.85;;;7.03;;
76593;SDS011;65482;50.240;14.302;2024-03-08T15:30:15;11.38;;;7.00;;
76593;SDS011;65482;50.240;14.302;2024-03-08T15:32:45;12.40;;;6.95;;
76593;SDS011;65482;50.240;14.302;2024-03-08T15:35:13;20.52;;;8.60;;
76593;SDS011;65482;50.240;14.302;2024-03-08T15:37:40;16.88;;;7.53;;
76593;SDS011;65482;50.240;14.302;2024-03-08T15:40:09;11.88;;;6.68;;
76593;SDS011;65482;50.240;14.302;2024-03-08T15:42:43;12.65;;;7.32;;
76593;SDS011;65482;50.240;14.302;2024-03-08T15:45:09;11.30;;;6.95;;
76593;SDS011;65482;50.240;14.302;2024-03-08T15:47:37;12.35;;;6.53;;
76593;SDS011;65482;50.240;14.302;2024-03-08T15:50:02;13.88;;;7.57;;
76593;SDS011;65482;50.240;14.302;2024-03-08T15:52:28;15.30;;;7.25;;
76593;SDS011;65482;50.240;14.302;2024-03-08T15:54:54;11.93;;;6.53;;
76593;SDS011;65482;50.240;14.302;2024-03-08T15:57:19;13.38;;;7.55;;
76593;SDS011;65482;50.240;14.302;2024-03-08T15:59:46;14.70;;;7.50;;
76593;SDS011;65482;50.240;14.302;2024-03-08T16:02:12;13.27;;;6.90;;
76593;SDS011;65482;50.240;14.302;2024-03-08T16:04:38;13.27;;;7.13;;
76593;SDS011;65482;50.240;14.302;2024-03-08T16:07:03;14.10;;;7.55;;
76593;SDS011;65482;50.240;14.302;2024-03-08T16:09:31;16.30;;;7.78;;
76593;SDS011;65482;50.240;14.302;2024-03-08T16:11:57;15.48;;;7.78;;
76593;SDS011;65482;50.240;14.302;2024-03-08T16:14:23;14.75;;;8.02;;
76593;SDS011;65482;50.240;14.302;2024-03-08T16:16:49;16.10;;;7.60;;
76593;SDS011;65482;50.240;14.302;2024-03-08T16:19:15;14.93;;;7.78;;
76593;SDS011;65482;50.240;14.302;2024-03-08T16:21:41;16.95;;;7.93;;
76593;SDS011;65482;50.240;14.302;2024-03-08T16:24:07;15.15;;;8.15;;
76593;SDS011;65482;50.240;14.302;2024-03-08T16:26:34;17.60;;;8.38;;
76593;SDS011;65482;50.240;14.302;2024-03-08T16:29:01;14.35;;;9.13;;
76593;SDS011;65482;50.240;14.302;2024-03-08T16:31:29;14.75;;;7.80;;
76593;SDS011;65482;50.240;14.302;2024-03-08T16:33:54;14.88;;;8.10;;
76593;SDS011;65482;50.240;14.302;2024-03-08T16:36:20;14.45;;;7.70;;
76593;SDS011;65482;50.240;14.302;2024-03-08T16:38:46;18.63;;;9.23;;
76593;SDS011;65482;50.240;14.302;2024-03-08T16:41:13;17.50;;;8.85;;
76593;SDS011;65482;50.240;14.302;2024-03-08T16:43:39;18.33;;;8.77;;
76593;SDS011;65482;50.240;14.302;2024-03-08T16:46:05;19.02;;;9.15;;
76593;SDS011;65482;50.240;14.302;2024-03-08T16:48:31;16.67;;;8.57;;
76593;SDS011;65482;50.240;14.302;2024-03-08T16:50:59;17.58;;;8.88;;
76593;SDS011;65482;50.240;14.302;2024-03-08T16:53:25;15.15;;;8.40;;
76593;SDS011;65482;50.240;14.302;2024-03-08T16:55:50;17.70;;;8.95;;
76593;SDS011;65482;50.240;14.302;2024-03-08T16:58:17;15.88;;;8.10;;